createdAt,value
2018-11-07T00:01:36.899Z,5.60
2018-11-07T00:04:41.393Z,4.93
2018-11-07T00:07:45.777Z,5.30
2018-11-07T00:10:50.338Z,5.50
2018-11-07T00:14:05.046Z,5.40
2018-11-07T00:17:09.451Z,5.83
2018-11-07T00:20:13.979Z,5.57
2018-11-07T00:23:18.404Z,5.22
2018-11-07T00:26:22.861Z,5.90
2018-11-07T00:29:27.326Z,5.37
2018-11-07T00:32:31.850Z,5.47
2018-11-07T00:39:10.567Z,5.70
2018-11-07T00:42:15.133Z,5.67
2018-11-07T00:45:25.161Z,5.80
2018-11-07T00:48:30.334Z,6.57
2018-11-07T00:51:40.637Z,6.00
2018-11-07T00:54:46.128Z,6.20
2018-11-07T00:57:50.621Z,5.70
2018-11-07T01:00:56.056Z,6.33
2018-11-07T01:04:00.439Z,5.53
2018-11-07T01:07:05.928Z,5.67
2018-11-07T01:10:10.704Z,5.70
2018-11-07T01:13:15.120Z,5.93
2018-11-07T01:16:20.548Z,4.80
2018-11-07T01:19:31.106Z,5.50
2018-11-07T01:22:35.668Z,4.85
2018-11-07T01:25:46.308Z,6.03
2018-11-07T01:28:55.996Z,5.20
2018-11-07T01:32:00.534Z,5.20
2018-11-07T01:35:09.185Z,5.40
2018-11-07T01:38:13.684Z,5.27
2018-11-07T01:41:18.073Z,5.53
2018-11-07T01:44:22.569Z,6.20
2018-11-07T01:47:27.225Z,7.07
2018-11-07T01:50:32.121Z,6.50
2018-11-07T01:53:47.113Z,5.75
2018-11-07T01:56:51.810Z,5.80
2018-11-07T02:00:09.764Z,5.40
2018-11-07T02:03:14.259Z,5.60
2018-11-07T02:06:18.644Z,4.90
2018-11-07T02:09:22.837Z,4.93
2018-11-07T02:12:41.890Z,5.13
2018-11-07T02:15:54.265Z,5.43
2018-11-07T02:19:03.844Z,5.37
2018-11-07T02:22:08.735Z,5.10
2018-11-07T02:25:13.211Z,4.70
2018-11-07T02:28:17.628Z,5.12
2018-11-07T02:31:22.025Z,4.93
2018-11-07T02:34:32.491Z,5.47
2018-11-07T02:37:36.843Z,4.60
2018-11-07T02:40:43.309Z,4.97
2018-11-07T02:43:53.008Z,5.10
2018-11-07T02:46:57.437Z,4.23
2018-11-07T02:50:01.686Z,4.27
2018-11-07T02:53:10.408Z,4.73
2018-11-07T02:56:16.842Z,4.63
2018-11-07T02:59:21.003Z,4.77
2018-11-07T03:02:27.601Z,4.78
2018-11-07T03:05:32.011Z,4.70
2018-11-07T03:08:41.025Z,4.63
2018-11-07T03:11:45.365Z,4.33
2018-11-07T03:14:49.776Z,4.53
2018-11-07T03:17:54.153Z,4.80
2018-11-07T03:20:58.548Z,4.50
2018-11-07T03:24:03.096Z,3.80
2018-11-07T03:27:07.479Z,4.53
2018-11-07T03:30:13.959Z,4.43
2018-11-07T03:33:18.822Z,4.40
2018-11-07T03:36:23.306Z,4.67
2018-11-07T03:39:27.800Z,5.07
2018-11-07T03:42:32.293Z,4.23
2018-11-07T03:45:41.972Z,4.57
2018-11-07T03:48:51.776Z,4.50
2018-11-07T03:51:56.283Z,4.17
2018-11-07T03:55:00.844Z,4.13
2018-11-07T03:58:05.641Z,4.43
2018-11-07T04:01:10.081Z,4.37
2018-11-07T04:04:14.484Z,4.17
2018-11-07T04:07:18.926Z,4.33
2018-11-07T04:10:24.489Z,4.23
2018-11-07T04:13:28.892Z,4.35
2018-11-07T04:16:33.344Z,4.60
2018-11-07T04:19:39.962Z,4.63
2018-11-07T04:22:45.657Z,3.63
2018-11-07T04:25:50.245Z,4.97
2018-11-07T04:28:54.998Z,3.70
2018-11-07T04:31:59.972Z,4.03
2018-11-07T04:35:04.529Z,4.57
2018-11-07T04:38:09.178Z,3.67
2018-11-07T04:41:13.654Z,4.20
2018-11-07T04:44:18.166Z,3.77
2018-11-07T04:47:22.428Z,3.47
2018-11-07T04:50:28.820Z,3.77
2018-11-07T04:53:34.455Z,4.57
2018-11-07T04:56:39.050Z,4.53
2018-11-07T04:59:45.564Z,4.27
2018-11-07T05:02:50.094Z,4.27
2018-11-07T05:05:54.640Z,3.60
2018-11-07T05:08:59.096Z,4.03
2018-11-07T05:12:03.505Z,3.80
2018-11-07T05:15:08.661Z,4.53
2018-11-07T05:18:13.217Z,4.35
2018-11-07T05:21:17.706Z,4.63
2018-11-07T05:24:22.061Z,4.37
2018-11-07T05:27:26.507Z,4.77
2018-11-07T05:30:31.100Z,5.00
2018-11-07T05:33:35.480Z,4.90
2018-11-07T05:36:39.872Z,4.80
2018-11-07T05:39:44.282Z,4.00
2018-11-07T05:42:48.800Z,4.07
2018-11-07T05:45:58.940Z,3.63
2018-11-07T05:49:04.488Z,4.13
2018-11-07T05:52:08.948Z,3.87
2018-11-07T05:55:13.348Z,3.90
2018-11-07T05:58:17.761Z,3.83
2018-11-07T06:01:22.236Z,4.30
2018-11-07T06:04:26.812Z,4.83
2018-11-07T06:07:31.968Z,4.30
2018-11-07T06:10:36.430Z,4.33
2018-11-07T06:13:40.860Z,4.50
2018-11-07T06:16:45.416Z,3.87
2018-11-07T06:19:49.822Z,3.97
2018-11-07T06:22:54.328Z,4.10
2018-11-07T06:25:58.695Z,4.07
2018-11-07T06:29:03.108Z,4.23
2018-11-07T06:32:07.532Z,5.57
2018-11-07T06:35:12.344Z,6.10
2018-11-07T06:38:16.795Z,7.27
2018-11-07T06:41:21.264Z,7.58
2018-11-07T06:44:25.751Z,7.30
2018-11-07T06:47:30.150Z,5.90
2018-11-07T06:50:34.737Z,5.63
2018-11-07T06:53:39.235Z,5.73
2018-11-07T06:56:43.986Z,5.17
2018-11-07T06:59:48.493Z,6.07
2018-11-07T07:02:53.000Z,6.00
2018-11-07T07:05:57.541Z,5.25
2018-11-07T07:09:02.047Z,6.47
2018-11-07T07:12:06.633Z,6.27
2018-11-07T07:15:13.698Z,5.20
2018-11-07T07:18:18.198Z,5.37
2018-11-07T07:21:22.585Z,5.10
2018-11-07T07:24:27.060Z,4.33
2018-11-07T07:27:31.565Z,3.97
2018-11-07T07:30:39.490Z,5.13
2018-11-07T07:33:43.941Z,4.30
2018-11-07T07:36:48.485Z,4.35
2018-11-07T07:39:52.899Z,4.63
2018-11-07T07:42:57.384Z,4.20
2018-11-07T07:46:01.826Z,4.57
2018-11-07T07:49:07.341Z,5.10
2018-11-07T07:52:12.156Z,4.40
2018-11-07T07:55:16.544Z,4.33
2018-11-07T07:58:21.032Z,4.37
2018-11-07T08:01:25.513Z,4.47
2018-11-07T08:04:30.044Z,4.70
2018-11-07T08:07:34.730Z,4.87
2018-11-07T08:10:40.225Z,4.20
2018-11-07T08:13:44.758Z,4.50
2018-11-07T08:16:49.231Z,4.13
2018-11-07T08:19:53.697Z,5.40
2018-11-07T08:22:58.136Z,6.10
2018-11-07T08:26:02.521Z,5.78
2018-11-07T08:29:07.079Z,5.47
2018-11-07T08:32:11.540Z,4.30
2018-11-07T08:35:16.389Z,4.73
2018-11-07T08:38:20.928Z,4.33
2018-11-07T08:41:25.420Z,5.00
2018-11-07T08:44:29.993Z,5.40
2018-11-07T08:47:34.609Z,5.30
2018-11-07T08:50:40.352Z,5.33
2018-11-07T08:53:44.854Z,4.65
2018-11-07T08:56:49.621Z,5.63
2018-11-07T08:59:57.484Z,6.03
2018-11-07T09:03:02.028Z,4.83
2018-11-07T09:06:06.665Z,5.33
2018-11-07T09:09:12.465Z,6.17
2018-11-07T09:12:17.141Z,5.75
2018-11-07T09:15:22.915Z,6.13
2018-11-07T09:18:28.664Z,5.90
2018-11-07T09:21:33.412Z,6.27
2018-11-07T09:24:37.918Z,6.07
2018-11-07T09:27:42.828Z,6.07
2018-11-07T09:30:47.500Z,6.43
2018-11-07T09:33:52.189Z,7.17
2018-11-07T09:36:56.920Z,7.87
2018-11-07T09:40:01.540Z,7.47
2018-11-07T09:43:06.260Z,8.00
2018-11-07T09:46:10.960Z,6.37
2018-11-07T09:49:15.786Z,7.33
2018-11-07T09:52:20.427Z,7.90
2018-11-07T09:55:25.057Z,7.10
2018-11-07T09:58:29.610Z,7.00
2018-11-07T10:01:34.172Z,6.97
2018-11-07T10:04:38.721Z,7.53
2018-11-07T10:07:43.428Z,7.10
2018-11-07T10:10:48.004Z,7.80
2018-11-07T10:13:52.518Z,6.53
2018-11-07T10:16:57.205Z,7.70
2018-11-07T10:20:01.775Z,7.20
2018-11-07T10:23:06.469Z,6.80
2018-11-07T10:26:11.062Z,6.57
2018-11-07T10:29:15.832Z,7.17
2018-11-07T10:32:20.344Z,6.73
2018-11-07T10:35:25.039Z,7.30
2018-11-07T10:38:29.703Z,6.97
2018-11-07T10:41:34.354Z,7.10
2018-11-07T10:44:38.931Z,6.77
2018-11-07T10:47:45.131Z,6.60
2018-11-07T10:50:49.727Z,6.20
2018-11-07T10:53:54.533Z,6.73
2018-11-07T10:57:00.099Z,6.10
2018-11-07T11:00:05.594Z,6.77
2018-11-07T11:03:15.316Z,6.10
2018-11-07T11:06:20.018Z,5.50
2018-11-07T11:09:27.210Z,6.33
2018-11-07T11:12:31.797Z,5.43
2018-11-07T11:15:36.478Z,5.50
2018-11-07T11:18:41.215Z,5.33
2018-11-07T11:21:45.912Z,4.90
2018-11-07T11:24:50.738Z,4.33
2018-11-07T11:27:55.434Z,4.47
2018-11-07T11:31:00.172Z,4.43
2018-11-07T11:34:05.376Z,3.50
2018-11-07T11:37:10.043Z,3.97
2018-11-07T11:40:16.356Z,3.37
2018-11-07T11:43:20.984Z,3.87
2018-11-07T11:46:25.584Z,3.53
2018-11-07T11:49:30.192Z,2.80
2018-11-07T11:52:35.869Z,2.73
2018-11-07T11:55:40.444Z,2.73
2018-11-07T11:58:46.438Z,3.03
2018-11-07T12:01:50.986Z,2.50
2018-11-07T12:04:55.583Z,3.00
2018-11-07T12:08:00.172Z,1.97
2018-11-07T12:11:04.858Z,2.57
2018-11-07T12:14:09.586Z,2.17
2018-11-07T12:17:14.309Z,2.50
2018-11-07T12:20:19.145Z,2.90
2018-11-07T12:23:23.799Z,2.87
2018-11-07T12:26:28.663Z,3.40
2018-11-07T12:29:33.679Z,2.80
2018-11-07T12:32:38.368Z,4.07
2018-11-07T12:35:42.945Z,3.67
2018-11-07T12:38:47.820Z,4.27
2018-11-07T12:41:52.543Z,4.20
2018-11-07T12:44:57.354Z,4.90
2018-11-07T12:48:02.441Z,4.67
2018-11-07T12:51:07.319Z,5.87
2018-11-07T12:54:12.127Z,5.27
2018-11-07T12:57:17.543Z,4.97
2018-11-07T13:00:24.467Z,5.90
2018-11-07T13:03:30.222Z,5.57
2018-11-07T13:06:35.479Z,5.20
2018-11-07T13:09:44.948Z,5.80
2018-11-07T13:12:51.096Z,6.33
2018-11-07T13:15:58.033Z,6.67
2018-11-07T13:19:11.377Z,5.57
2018-11-07T13:22:18.525Z,6.20
2018-11-07T13:25:24.552Z,6.20
2018-11-07T13:28:29.478Z,5.20
2018-11-07T13:31:34.499Z,5.63
2018-11-07T13:34:39.507Z,5.60
2018-11-07T13:37:45.619Z,6.30
2018-11-07T13:40:50.540Z,6.33
2018-11-07T13:43:55.721Z,6.63
2018-11-07T13:47:01.169Z,6.67
2018-11-07T13:50:16.272Z,6.53
2018-11-07T13:53:21.332Z,6.47
2018-11-07T13:56:26.630Z,6.00
2018-11-07T13:59:31.310Z,5.83
2018-11-07T14:02:36.333Z,5.00
2018-11-07T14:05:41.262Z,4.97
2018-11-07T14:08:45.954Z,3.70
2018-11-07T14:11:51.301Z,3.50
2018-11-07T14:14:56.234Z,3.50
2018-11-07T14:18:01.054Z,3.43
2018-11-07T14:21:05.942Z,3.13
2018-11-07T14:24:11.553Z,2.73
2018-11-07T14:27:16.539Z,3.03
2018-11-07T14:30:22.439Z,2.30
2018-11-07T14:33:27.871Z,2.53
2018-11-07T14:36:33.296Z,3.37
2018-11-07T14:39:37.969Z,3.20
2018-11-07T14:42:42.640Z,2.50
2018-11-07T14:45:47.281Z,3.43
2018-11-07T14:48:51.728Z,2.97
2018-11-07T14:51:56.367Z,3.40
2018-11-07T14:55:02.237Z,4.40
2018-11-07T14:58:06.966Z,3.73
2018-11-07T15:01:11.973Z,4.65
2018-11-07T15:04:16.513Z,3.87
2018-11-07T15:07:21.166Z,4.53
2018-11-07T15:10:25.734Z,4.40
2018-11-07T15:13:30.431Z,5.03
2018-11-07T15:16:35.105Z,4.87
2018-11-07T15:19:39.483Z,5.60
2018-11-07T15:22:44.053Z,5.40
2018-11-07T15:25:48.681Z,5.93
2018-11-07T15:28:53.140Z,6.43
2018-11-07T15:31:57.505Z,5.27
2018-11-07T15:35:01.984Z,6.03
2018-11-07T15:38:06.533Z,5.43
2018-11-07T15:41:11.070Z,5.40
2018-11-07T15:44:15.629Z,5.67
2018-11-07T15:47:20.218Z,6.23
2018-11-07T15:50:30.357Z,7.50
2018-11-07T15:53:35.549Z,7.70
2018-11-07T15:56:40.275Z,7.80
2018-11-07T15:59:44.848Z,6.70
2018-11-07T16:02:50.267Z,7.03
2018-11-07T16:05:55.325Z,6.63
2018-11-07T16:12:26.594Z,7.37
2018-11-07T16:15:38.139Z,10.80
2018-11-07T16:19:04.902Z,8.70
2018-11-07T16:22:12.034Z,7.50
2018-11-07T16:25:20.864Z,7.63
2018-11-07T16:28:25.435Z,7.10
2018-11-07T16:31:29.787Z,6.80
2018-11-07T16:34:34.264Z,6.57
2018-11-07T16:37:38.801Z,5.92
2018-11-07T16:40:46.700Z,4.53
2018-11-07T16:43:53.083Z,4.67
2018-11-07T16:46:58.197Z,4.33
2018-11-07T16:50:02.820Z,5.40
2018-11-07T16:53:08.270Z,15.17
2018-11-07T16:56:13.808Z,13.70
2018-11-07T16:59:20.094Z,6.53
2018-11-07T17:02:25.592Z,6.20
2018-11-07T17:05:32.060Z,5.60
2018-11-07T17:08:36.507Z,5.97
2018-11-07T17:11:41.963Z,6.83
2018-11-07T17:14:46.485Z,6.57
2018-11-07T17:17:51.960Z,8.10
2018-11-07T17:20:56.576Z,7.43
2018-11-07T17:24:01.110Z,7.47
2018-11-07T17:27:05.759Z,8.30
2018-11-07T17:30:12.080Z,7.83
2018-11-07T17:33:16.745Z,8.40
2018-11-07T17:36:21.627Z,7.23
2018-11-07T17:39:26.148Z,6.57
2018-11-07T17:42:38.493Z,7.13
2018-11-07T17:45:46.049Z,7.33
2018-11-07T17:48:53.999Z,7.57
2018-11-07T17:52:02.940Z,6.93
2018-11-07T17:55:12.857Z,7.33
2018-11-07T17:58:22.993Z,7.60
2018-11-07T18:01:37.962Z,7.90
2018-11-07T18:04:44.894Z,8.03
2018-11-07T18:07:55.766Z,9.03
2018-11-07T18:11:07.196Z,8.17
2018-11-07T18:14:19.033Z,8.90
2018-11-07T18:17:35.941Z,7.93
2018-11-07T18:20:58.260Z,10.37
2018-11-07T18:24:02.916Z,11.00
2018-11-07T18:27:07.699Z,11.87
2018-11-07T18:30:14.462Z,11.87
2018-11-07T18:33:19.228Z,13.27
2018-11-07T18:36:24.284Z,13.50
2018-11-07T18:39:36.229Z,14.57
2018-11-07T18:42:41.983Z,14.60
2018-11-07T18:45:47.384Z,15.23
2018-11-07T18:48:53.496Z,14.63
2018-11-07T18:52:00.274Z,14.23
2018-11-07T18:55:06.587Z,13.50
2018-11-07T18:58:18.945Z,14.67
2018-11-07T19:01:30.009Z,13.93
2018-11-07T19:04:41.637Z,13.23
2018-11-07T19:07:54.114Z,14.07
2018-11-07T19:14:33.688Z,14.80
2018-11-07T19:17:38.500Z,15.50
2018-11-07T19:20:42.881Z,15.53
2018-11-07T19:23:47.290Z,15.30
2018-11-07T19:26:51.803Z,15.33
2018-11-07T19:29:56.121Z,15.40
2018-11-07T19:33:00.714Z,15.37
2018-11-07T19:36:05.478Z,15.40
2018-11-07T19:39:10.436Z,15.43
2018-11-07T19:42:14.828Z,16.97
2018-11-07T19:45:20.097Z,16.80
2018-11-07T19:48:24.516Z,16.80
2018-11-07T19:51:28.852Z,15.28
2018-11-07T19:54:33.161Z,14.63
2018-11-07T19:57:37.584Z,16.67
2018-11-07T20:00:41.893Z,21.97
2018-11-07T20:03:46.301Z,17.03
2018-11-07T20:06:51.008Z,13.13
2018-11-07T20:09:55.486Z,14.67
2018-11-07T20:13:00.009Z,13.53
2018-11-07T20:16:04.561Z,14.10
2018-11-07T20:19:09.073Z,15.37
2018-11-07T20:22:14.501Z,16.63
2018-11-07T20:25:18.899Z,20.57
2018-11-07T20:28:23.272Z,21.30
2018-11-07T20:31:27.715Z,16.00
2018-11-07T20:34:32.758Z,16.67
2018-11-07T20:37:37.153Z,15.83
2018-11-07T20:40:41.577Z,16.87
2018-11-07T20:43:46.014Z,15.23
2018-11-07T20:46:50.468Z,14.33
2018-11-07T20:49:55.146Z,14.57
2018-11-07T20:52:59.604Z,16.07
2018-11-07T20:56:04.247Z,13.40
2018-11-07T20:59:09.335Z,13.63
2018-11-07T21:02:13.705Z,12.10
2018-11-07T21:05:18.358Z,12.60
2018-11-07T21:08:22.767Z,12.03
2018-11-07T21:11:27.175Z,11.90
2018-11-07T21:14:31.618Z,10.93
2018-11-07T21:17:36.239Z,12.13
2018-11-07T21:20:40.874Z,12.27
2018-11-07T21:23:45.311Z,11.95
2018-11-07T21:26:49.926Z,11.77
2018-11-07T21:30:25.416Z,12.10
2018-11-07T21:33:29.911Z,11.47
2018-11-07T21:36:34.765Z,11.90
2018-11-07T21:39:39.142Z,11.00
2018-11-07T21:42:44.126Z,11.33
2018-11-07T21:45:48.637Z,11.43
2018-11-07T21:48:53.301Z,10.13
2018-11-07T21:51:57.729Z,10.40
2018-11-07T21:55:02.024Z,9.73
2018-11-07T21:58:06.575Z,10.47
2018-11-07T22:01:10.993Z,9.03
2018-11-07T22:04:15.334Z,10.10
2018-11-07T22:07:19.716Z,8.70
2018-11-07T22:10:24.031Z,9.77
2018-11-07T22:13:28.396Z,11.12
2018-11-07T22:16:32.824Z,9.00
2018-11-07T22:19:37.141Z,10.30
2018-11-07T22:22:41.474Z,9.53
2018-11-07T22:25:47.023Z,9.63
2018-11-07T22:28:51.325Z,9.37
2018-11-07T22:31:55.641Z,9.63
2018-11-07T22:35:00.009Z,9.20
2018-11-07T22:38:04.373Z,9.15
2018-11-07T22:41:08.693Z,9.63
2018-11-07T22:44:12.995Z,9.77
2018-11-07T22:47:17.336Z,8.68
2018-11-07T22:50:21.944Z,8.97
2018-11-07T22:53:26.252Z,9.53
2018-11-07T22:56:30.710Z,8.07
2018-11-07T22:59:35.034Z,7.80
2018-11-07T23:02:39.392Z,8.40
2018-11-07T23:05:43.710Z,8.73
2018-11-07T23:08:48.037Z,6.50
2018-11-07T23:11:52.562Z,6.25
2018-11-07T23:14:56.881Z,7.40
2018-11-07T23:18:01.190Z,5.97
2018-11-07T23:21:06.252Z,7.97
2018-11-07T23:24:10.782Z,7.97
2018-11-07T23:27:15.096Z,9.53
2018-11-07T23:30:19.401Z,8.63
2018-11-07T23:33:23.793Z,7.53
2018-11-07T23:36:28.108Z,10.00
2018-11-07T23:39:32.525Z,8.37
2018-11-07T23:42:36.872Z,7.97
2018-11-07T23:45:41.184Z,8.27
2018-11-07T23:48:45.556Z,9.73
2018-11-07T23:51:50.740Z,8.33
2018-11-07T23:54:55.309Z,9.40
2018-11-07T23:58:00.239Z,8.93
